sensor_id;sensor_type;location;lat;lon;timestamp;P1;durP1;ratioP1;P2;durP2;ratioP2
18142;SDS011;9197;50.930;3.140;2022-11-06T00:00:44;10.63;;;5.20;;
18142;SDS011;9197;50.930;3.140;2022-11-06T00:03:11;9.70;;;4.97;;
18142;SDS011;9197;50.930;3.140;2022-11-06T00:05:40;11.77;;;5.60;;
18142;SDS011;9197;50.930;3.140;2022-11-06T00:08:29;9.93;;;4.67;;
18142;SDS011;9197;50.930;3.140;2022-11-06T00:10:57;8.53;;;5.03;;
18142;SDS011;9197;50.930;3.140;2022-11-06T00:13:24;11.10;;;6.30;;
18142;SDS011;9197;50.930;3.140;2022-11-06T00:15:51;7.97;;;4.33;;
18142;SDS011;9197;50.930;3.140;2022-11-06T00:18:18;8.83;;;4.33;;
18142;SDS011;9197;50.930;3.140;2022-11-06T00:20:47;15.33;;;5.50;;
18142;SDS011;9197;50.930;3.140;2022-11-06T00:23:14;9.60;;;5.23;;
18142;SDS011;9197;50.930;3.140;2022-11-06T00:25:41;8.87;;;4.87;;
18142;SDS011;9197;50.930;3.140;2022-11-06T00:28:08;11.87;;;5.87;;
18142;SDS011;9197;50.930;3.140;2022-11-06T00:30:35;10.03;;;4.67;;
18142;SDS011;9197;50.930;3.140;2022-11-06T00:33:03;9.17;;;4.93;;
18142;SDS011;9197;50.930;3.140;2022-11-06T00:35:30;8.80;;;4.90;;
18142;SDS011;9197;50.930;3.140;2022-11-06T00:37:58;8.30;;;5.17;;
18142;SDS011;9197;50.930;3.140;2022-11-06T00:40:25;6.53;;;4.70;;
18142;SDS011;9197;50.930;3.140;2022-11-06T00:42:55;9.07;;;4.73;;
18142;SDS011;9197;50.930;3.140;2022-11-06T00:45:23;5.57;;;4.40;;
18142;SDS011;9197;50.930;3.140;2022-11-06T00:47:50;7.10;;;4.57;;
18142;SDS011;9197;50.930;3.140;2022-11-06T00:50:17;8.10;;;4.63;;
18142;SDS011;9197;50.930;3.140;2022-11-06T00:52:45;10.00;;;5.47;;
18142;SDS011;9197;50.930;3.140;2022-11-06T00:55:13;11.40;;;5.30;;
18142;SDS011;9197;50.930;3.140;2022-11-06T00:57:40;8.33;;;5.23;;
18142;SDS011;9197;50.930;3.140;2022-11-06T01:00:08;12.73;;;5.30;;
18142;SDS011;9197;50.930;3.140;2022-11-06T01:02:36;7.67;;;4.23;;
18142;SDS011;9197;50.930;3.140;2022-11-06T01:05:03;12.27;;;5.83;;
18142;SDS011;9197;50.930;3.140;2022-11-06T01:07:31;7.70;;;5.83;;
18142;SDS011;9197;50.930;3.140;2022-11-06T01:09:58;13.57;;;5.73;;
18142;SDS011;9197;50.930;3.140;2022-11-06T01:12:26;7.27;;;5.47;;
18142;SDS011;9197;50.930;3.140;2022-11-06T01:14:56;11.47;;;5.33;;
18142;SDS011;9197;50.930;3.140;2022-11-06T01:17:23;9.00;;;5.90;;
18142;SDS011;9197;50.930;3.140;2022-11-06T01:19:50;12.57;;;5.70;;
18142;SDS011;9197;50.930;3.140;2022-11-06T01:22:17;10.33;;;5.33;;
18142;SDS011;9197;50.930;3.140;2022-11-06T01:24:45;10.40;;;6.07;;
18142;SDS011;9197;50.930;3.140;2022-11-06T01:27:12;11.83;;;5.77;;
18142;SDS011;9197;50.930;3.140;2022-11-06T01:29:40;6.53;;;5.37;;
18142;SDS011;9197;50.930;3.140;2022-11-06T01:32:08;11.33;;;5.00;;
18142;SDS011;9197;50.930;3.140;2022-11-06T01:34:35;11.90;;;5.80;;
18142;SDS011;9197;50.930;3.140;2022-11-06T01:37:02;11.13;;;5.40;;
18142;SDS011;9197;50.930;3.140;2022-11-06T01:39:29;9.67;;;5.93;;
18142;SDS011;9197;50.930;3.140;2022-11-06T01:41:56;12.10;;;6.33;;
18142;SDS011;9197;50.930;3.140;2022-11-06T01:47:17;11.00;;;5.90;;
18142;SDS011;9197;50.930;3.140;2022-11-06T01:49:45;11.67;;;6.00;;
18142;SDS011;9197;50.930;3.140;2022-11-06T01:52:12;11.90;;;6.60;;
18142;SDS011;9197;50.930;3.140;2022-11-06T01:54:41;11.77;;;5.60;;
18142;SDS011;9197;50.930;3.140;2022-11-06T01:57:09;19.20;;;6.00;;
18142;SDS011;9197;50.930;3.140;2022-11-06T01:59:37;11.77;;;6.10;;
18142;SDS011;9197;50.930;3.140;2022-11-06T02:02:06;10.00;;;5.80;;
18142;SDS011;9197;50.930;3.140;2022-11-06T02:04:35;11.77;;;5.80;;
18142;SDS011;9197;50.930;3.140;2022-11-06T02:07:03;8.27;;;5.57;;
18142;SDS011;9197;50.930;3.140;2022-11-06T02:09:30;10.70;;;5.40;;
18142;SDS011;9197;50.930;3.140;2022-11-06T02:12:01;9.73;;;6.23;;
18142;SDS011;9197;50.930;3.140;2022-11-06T02:14:31;10.50;;;4.63;;
18142;SDS011;9197;50.930;3.140;2022-11-06T02:17:01;11.77;;;5.43;;
18142;SDS011;9197;50.930;3.140;2022-11-06T02:19:38;9.57;;;6.07;;
18142;SDS011;9197;50.930;3.140;2022-11-06T02:22:10;12.67;;;5.13;;
18142;SDS011;9197;50.930;3.140;2022-11-06T02:24:46;9.60;;;5.60;;
18142;SDS011;9197;50.930;3.140;2022-11-06T02:27:17;13.57;;;6.53;;
18142;SDS011;9197;50.930;3.140;2022-11-06T02:29:46;6.80;;;5.50;;
18142;SDS011;9197;50.930;3.140;2022-11-06T02:32:16;12.43;;;5.00;;
18142;SDS011;9197;50.930;3.140;2022-11-06T02:34:44;9.63;;;4.80;;
18142;SDS011;9197;50.930;3.140;2022-11-06T02:37:13;10.03;;;5.13;;
18142;SDS011;9197;50.930;3.140;2022-11-06T02:39:42;12.27;;;5.93;;
18142;SDS011;9197;50.930;3.140;2022-11-06T02:42:11;10.20;;;5.47;;
18142;SDS011;9197;50.930;3.140;2022-11-06T02:44:42;9.40;;;5.67;;
18142;SDS011;9197;50.930;3.140;2022-11-06T02:47:10;11.30;;;4.70;;
18142;SDS011;9197;50.930;3.140;2022-11-06T02:49:39;9.93;;;4.80;;
18142;SDS011;9197;50.930;3.140;2022-11-06T02:52:09;10.57;;;5.17;;
18142;SDS011;9197;50.930;3.140;2022-11-06T02:54:38;9.17;;;4.63;;
18142;SDS011;9197;50.930;3.140;2022-11-06T02:57:08;9.27;;;4.33;;
18142;SDS011;9197;50.930;3.140;2022-11-06T02:59:40;8.50;;;5.17;;
18142;SDS011;9197;50.930;3.140;2022-11-06T03:02:12;8.73;;;5.50;;
18142;SDS011;9197;50.930;3.140;2022-11-06T03:04:42;9.23;;;4.57;;
18142;SDS011;9197;50.930;3.140;2022-11-06T03:07:13;10.17;;;5.23;;
18142;SDS011;9197;50.930;3.140;2022-11-06T03:09:42;5.70;;;4.30;;
18142;SDS011;9197;50.930;3.140;2022-11-06T03:12:12;8.80;;;4.57;;
18142;SDS011;9197;50.930;3.140;2022-11-06T03:14:45;9.40;;;4.93;;
18142;SDS011;9197;50.930;3.140;2022-11-06T03:17:16;7.80;;;4.20;;
18142;SDS011;9197;50.930;3.140;2022-11-06T03:19:45;7.50;;;4.00;;
18142;SDS011;9197;50.930;3.140;2022-11-06T03:22:14;11.90;;;4.70;;
18142;SDS011;9197;50.930;3.140;2022-11-06T03:24:44;9.57;;;4.80;;
18142;SDS011;9197;50.930;3.140;2022-11-06T03:27:13;7.77;;;4.63;;
18142;SDS011;9197;50.930;3.140;2022-11-06T03:29:42;7.97;;;4.03;;
18142;SDS011;9197;50.930;3.140;2022-11-06T03:32:12;8.73;;;4.30;;
18142;SDS011;9197;50.930;3.140;2022-11-06T03:34:43;7.50;;;3.87;;
18142;SDS011;9197;50.930;3.140;2022-11-06T03:37:13;6.93;;;4.00;;
18142;SDS011;9197;50.930;3.140;2022-11-06T03:39:43;9.47;;;4.43;;
18142;SDS011;9197;50.930;3.140;2022-11-06T03:42:13;8.30;;;3.50;;
18142;SDS011;9197;50.930;3.140;2022-11-06T03:44:42;9.83;;;4.13;;
18142;SDS011;9197;50.930;3.140;2022-11-06T03:47:10;12.03;;;4.27;;
18142;SDS011;9197;50.930;3.140;2022-11-06T03:49:40;8.13;;;4.00;;
18142;SDS011;9197;50.930;3.140;2022-11-06T03:52:10;9.10;;;4.43;;
18142;SDS011;9197;50.930;3.140;2022-11-06T03:54:39;5.07;;;3.40;;
18142;SDS011;9197;50.930;3.140;2022-11-06T03:57:10;8.73;;;4.00;;
18142;SDS011;9197;50.930;3.140;2022-11-06T03:59:38;10.27;;;5.13;;
18142;SDS011;9197;50.930;3.140;2022-11-06T04:02:07;9.83;;;4.57;;
18142;SDS011;9197;50.930;3.140;2022-11-06T04:04:37;4.53;;;2.83;;
18142;SDS011;9197;50.930;3.140;2022-11-06T04:07:08;7.43;;;4.10;;
18142;SDS011;9197;50.930;3.140;2022-11-06T04:09:39;7.17;;;4.20;;
18142;SDS011;9197;50.930;3.140;2022-11-06T04:12:24;10.03;;;4.83;;
18142;SDS011;9197;50.930;3.140;2022-11-06T04:15:24;6.07;;;3.80;;
18142;SDS011;9197;50.930;3.140;2022-11-06T04:17:52;8.83;;;3.93;;
18142;SDS011;9197;50.930;3.140;2022-11-06T04:20:20;5.93;;;3.60;;
18142;SDS011;9197;50.930;3.140;2022-11-06T04:23:08;4.80;;;3.77;;
18142;SDS011;9197;50.930;3.140;2022-11-06T04:25:43;8.77;;;3.63;;
18142;SDS011;9197;50.930;3.140;2022-11-06T04:28:32;9.30;;;3.83;;
18142;SDS011;9197;50.930;3.140;2022-11-06T04:31:06;6.03;;;3.33;;
18142;SDS011;9197;50.930;3.140;2022-11-06T04:33:35;7.37;;;3.37;;
18142;SDS011;9197;50.930;3.140;2022-11-06T04:36:05;7.00;;;3.63;;
18142;SDS011;9197;50.930;3.140;2022-11-06T04:38:39;10.77;;;3.50;;
18142;SDS011;9197;50.930;3.140;2022-11-06T04:41:13;8.63;;;3.63;;
18142;SDS011;9197;50.930;3.140;2022-11-06T04:43:44;10.53;;;3.90;;
18142;SDS011;9197;50.930;3.140;2022-11-06T04:46:14;8.80;;;4.00;;
18142;SDS011;9197;50.930;3.140;2022-11-06T04:48:43;11.13;;;3.83;;
18142;SDS011;9197;50.930;3.140;2022-11-06T04:51:11;7.20;;;2.87;;
18142;SDS011;9197;50.930;3.140;2022-11-06T04:53:39;3.53;;;2.63;;
18142;SDS011;9197;50.930;3.140;2022-11-06T04:56:08;6.13;;;2.67;;
18142;SDS011;9197;50.930;3.140;2022-11-06T04:58:37;10.43;;;3.67;;
18142;SDS011;9197;50.930;3.140;2022-11-06T05:01:05;4.90;;;3.80;;
18142;SDS011;9197;50.930;3.140;2022-11-06T05:03:32;10.47;;;3.33;;
18142;SDS011;9197;50.930;3.140;2022-11-06T05:05:59;8.57;;;3.10;;
18142;SDS011;9197;50.930;3.140;2022-11-06T05:08:26;7.20;;;3.47;;
18142;SDS011;9197;50.930;3.140;2022-11-06T05:10:53;6.63;;;3.43;;
18142;SDS011;9197;50.930;3.140;2022-11-06T05:13:20;7.40;;;3.20;;
18142;SDS011;9197;50.930;3.140;2022-11-06T05:15:49;6.37;;;3.00;;
18142;SDS011;9197;50.930;3.140;2022-11-06T05:18:20;5.67;;;3.53;;
18142;SDS011;9197;50.930;3.140;2022-11-06T05:20:47;7.47;;;2.80;;
18142;SDS011;9197;50.930;3.140;2022-11-06T05:23:35;9.60;;;4.53;;
18142;SDS011;9197;50.930;3.140;2022-11-06T05:26:02;9.83;;;3.73;;
18142;SDS011;9197;50.930;3.140;2022-11-06T05:28:29;5.67;;;3.40;;
18142;SDS011;9197;50.930;3.140;2022-11-06T05:30:58;4.77;;;2.57;;
18142;SDS011;9197;50.930;3.140;2022-11-06T05:33:25;3.20;;;2.53;;
18142;SDS011;9197;50.930;3.140;2022-11-06T05:35:52;6.70;;;2.90;;
18142;SDS011;9197;50.930;3.140;2022-11-06T05:38:19;5.03;;;2.87;;
18142;SDS011;9197;50.930;3.140;2022-11-06T05:40:47;8.03;;;3.00;;
18142;SDS011;9197;50.930;3.140;2022-11-06T05:43:14;3.57;;;2.10;;
18142;SDS011;9197;50.930;3.140;2022-11-06T05:45:41;4.73;;;2.27;;
18142;SDS011;9197;50.930;3.140;2022-11-06T05:48:09;4.80;;;2.40;;
18142;SDS011;9197;50.930;3.140;2022-11-06T05:50:37;12.07;;;2.90;;
18142;SDS011;9197;50.930;3.140;2022-11-06T05:53:04;6.17;;;2.57;;
18142;SDS011;9197;50.930;3.140;2022-11-06T05:55:31;10.50;;;2.97;;
18142;SDS011;9197;50.930;3.140;2022-11-06T05:57:58;7.10;;;3.33;;
18142;SDS011;9197;50.930;3.140;2022-11-06T06:00:25;6.93;;;2.77;;
18142;SDS011;9197;50.930;3.140;2022-11-06T06:02:52;9.73;;;3.17;;
18142;SDS011;9197;50.930;3.140;2022-11-06T06:05:21;7.83;;;2.40;;
18142;SDS011;9197;50.930;3.140;2022-11-06T06:07:48;6.90;;;2.67;;
18142;SDS011;9197;50.930;3.140;2022-11-06T06:10:15;6.40;;;2.70;;
18142;SDS011;9197;50.930;3.140;2022-11-06T06:12:42;4.23;;;2.50;;
18142;SDS011;9197;50.930;3.140;2022-11-06T06:15:10;7.37;;;3.13;;
18142;SDS011;9197;50.930;3.140;2022-11-06T06:17:39;9.23;;;3.27;;
18142;SDS011;9197;50.930;3.140;2022-11-06T06:20:06;9.13;;;3.00;;
18142;SDS011;9197;50.930;3.140;2022-11-06T06:22:35;6.33;;;3.17;;
18142;SDS011;9197;50.930;3.140;2022-11-06T06:25:02;7.00;;;2.90;;
18142;SDS011;9197;50.930;3.140;2022-11-06T06:27:30;5.43;;;2.37;;
18142;SDS011;9197;50.930;3.140;2022-11-06T06:29:57;4.33;;;2.57;;
18142;SDS011;9197;50.930;3.140;2022-11-06T06:32:24;12.33;;;2.97;;
18142;SDS011;9197;50.930;3.140;2022-11-06T06:34:51;6.93;;;2.30;;
18142;SDS011;9197;50.930;3.140;2022-11-06T06:37:18;13.20;;;3.00;;
18142;SDS011;9197;50.930;3.140;2022-11-06T06:39:47;6.80;;;2.77;;
18142;SDS011;9197;50.930;3.140;2022-11-06T06:42:14;6.20;;;2.53;;
18142;SDS011;9197;50.930;3.140;2022-11-06T06:44:41;8.80;;;2.90;;
18142;SDS011;9197;50.930;3.140;2022-11-06T06:47:08;7.93;;;2.93;;
18142;SDS011;9197;50.930;3.140;2022-11-06T06:49:35;4.90;;;3.33;;
18142;SDS011;9197;50.930;3.140;2022-11-06T06:52:03;8.87;;;3.23;;
18142;SDS011;9197;50.930;3.140;2022-11-06T06:54:30;6.80;;;2.23;;
18142;SDS011;9197;50.930;3.140;2022-11-06T06:56:58;9.47;;;3.33;;
18142;SDS011;9197;50.930;3.140;2022-11-06T06:59:26;8.67;;;3.20;;
18142;SDS011;9197;50.930;3.140;2022-11-06T07:01:54;4.17;;;2.33;;
18142;SDS011;9197;50.930;3.140;2022-11-06T07:04:21;4.53;;;2.13;;
18142;SDS011;9197;50.930;3.140;2022-11-06T07:06:49;3.00;;;2.13;;
18142;SDS011;9197;50.930;3.140;2022-11-06T07:09:16;10.40;;;2.90;;
18142;SDS011;9197;50.930;3.140;2022-11-06T07:11:43;6.67;;;2.93;;
18142;SDS011;9197;50.930;3.140;2022-11-06T07:14:12;7.53;;;2.43;;
18142;SDS011;9197;50.930;3.140;2022-11-06T07:16:39;4.50;;;2.43;;
18142;SDS011;9197;50.930;3.140;2022-11-06T07:19:06;6.60;;;2.33;;
18142;SDS011;9197;50.930;3.140;2022-11-06T07:21:34;7.23;;;2.63;;
18142;SDS011;9197;50.930;3.140;2022-11-06T07:24:02;6.27;;;2.07;;
18142;SDS011;9197;50.930;3.140;2022-11-06T07:26:29;7.13;;;2.53;;
18142;SDS011;9197;50.930;3.140;2022-11-06T07:28:56;4.97;;;2.60;;
18142;SDS011;9197;50.930;3.140;2022-11-06T07:31:25;5.63;;;2.93;;
18142;SDS011;9197;50.930;3.140;2022-11-06T07:33:52;3.67;;;2.57;;
18142;SDS011;9197;50.930;3.140;2022-11-06T07:36:19;7.90;;;3.10;;
18142;SDS011;9197;50.930;3.140;2022-11-06T07:38:46;5.97;;;2.77;;
18142;SDS011;9197;50.930;3.140;2022-11-06T07:41:14;5.53;;;2.83;;
18142;SDS011;9197;50.930;3.140;2022-11-06T07:43:41;5.27;;;2.30;;
18142;SDS011;9197;50.930;3.140;2022-11-06T07:46:09;6.00;;;2.63;;
18142;SDS011;9197;50.930;3.140;2022-11-06T07:48:38;7.10;;;2.37;;
18142;SDS011;9197;50.930;3.140;2022-11-06T07:51:06;4.33;;;2.40;;
18142;SDS011;9197;50.930;3.140;2022-11-06T07:53:34;2.93;;;2.00;;
18142;SDS011;9197;50.930;3.140;2022-11-06T07:56:02;5.47;;;2.20;;
18142;SDS011;9197;50.930;3.140;2022-11-06T07:58:29;6.43;;;3.90;;
18142;SDS011;9197;50.930;3.140;2022-11-06T08:00:56;7.00;;;2.83;;
18142;SDS011;9197;50.930;3.140;2022-11-06T08:03:24;6.07;;;2.87;;
18142;SDS011;9197;50.930;3.140;2022-11-06T08:05:55;0.00;;;0.00;;
18142;SDS011;9197;50.930;3.140;2022-11-06T08:08:22;0.00;;;0.00;;
18142;SDS011;9197;50.930;3.140;2022-11-06T08:10:50;0.97;;;0.97;;
18142;SDS011;9197;50.930;3.140;2022-11-06T08:13:18;1.70;;;0.77;;
18142;SDS011;9197;50.930;3.140;2022-11-06T08:15:45;0.10;;;0.10;;
18142;SDS011;9197;50.930;3.140;2022-11-06T08:18:12;0.07;;;0.07;;
18142;SDS011;9197;50.930;3.140;2022-11-06T08:20:39;0.10;;;0.10;;
18142;SDS011;9197;50.930;3.140;2022-11-06T08:23:10;0.00;;;0.00;;
18142;SDS011;9197;50.930;3.140;2022-11-06T08:25:38;0.10;;;0.10;;
18142;SDS011;9197;50.930;3.140;2022-11-06T08:28:05;0.73;;;0.73;;
18142;SDS011;9197;50.930;3.140;2022-11-06T08:30:32;1.03;;;0.73;;
18142;SDS011;9197;50.930;3.140;2022-11-06T08:33:00;0.30;;;0.30;;
18142;SDS011;9197;50.930;3.140;2022-11-06T08:35:28;0.10;;;0.10;;
18142;SDS011;9197;50.930;3.140;2022-11-06T08:37:55;0.00;;;0.00;;
18142;SDS011;9197;50.930;3.140;2022-11-06T08:40:23;0.30;;;0.30;;
18142;SDS011;9197;50.930;3.140;2022-11-06T08:42:51;1.07;;;1.07;;
18142;SDS011;9197;50.930;3.140;2022-11-06T08:45:18;0.07;;;0.07;;
18142;SDS011;9197;50.930;3.140;2022-11-06T08:47:45;0.10;;;0.10;;
18142;SDS011;9197;50.930;3.140;2022-11-06T08:50:12;0.00;;;0.00;;
18142;SDS011;9197;50.930;3.140;2022-11-06T08:52:39;0.47;;;0.47;;
18142;SDS011;9197;50.930;3.140;2022-11-06T08:55:07;0.10;;;0.10;;
18142;SDS011;9197;50.930;3.140;2022-11-06T08:57:36;0.20;;;0.20;;
18142;SDS011;9197;50.930;3.140;2022-11-06T09:00:08;0.10;;;0.10;;
18142;SDS011;9197;50.930;3.140;2022-11-06T09:02:36;0.10;;;0.10;;
18142;SDS011;9197;50.930;3.140;2022-11-06T09:05:05;0.00;;;0.00;;
18142;SDS011;9197;50.930;3.140;2022-11-06T09:07:32;0.30;;;0.30;;
18142;SDS011;9197;50.930;3.140;2022-11-06T09:09:59;0.00;;;0.00;;
18142;SDS011;9197;50.930;3.140;2022-11-06T09:12:27;0.53;;;0.30;;
18142;SDS011;9197;50.930;3.140;2022-11-06T09:14:55;0.10;;;0.10;;
18142;SDS011;9197;50.930;3.140;2022-11-06T09:17:23;0.20;;;0.20;;
18142;SDS011;9197;50.930;3.140;2022-11-06T09:19:50;0.00;;;0.00;;
18142;SDS011;9197;50.930;3.140;2022-11-06T09:22:18;0.00;;;0.00;;
18142;SDS011;9197;50.930;3.140;2022-11-06T09:24:45;0.00;;;0.00;;
18142;SDS011;9197;50.930;3.140;2022-11-06T09:27:13;8.10;;;2.70;;
18142;SDS011;9197;50.930;3.140;2022-11-06T09:29:40;0.63;;;0.63;;
18142;SDS011;9197;50.930;3.140;2022-11-06T09:32:10;1.07;;;1.00;;
18142;SDS011;9197;50.930;3.140;2022-11-06T09:34:37;0.30;;;0.30;;
18142;SDS011;9197;50.930;3.140;2022-11-06T09:37:04;0.10;;;0.10;;
18142;SDS011;9197;50.930;3.140;2022-11-06T09:39:31;0.50;;;0.30;;
18142;SDS011;9197;50.930;3.140;2022-11-06T09:41:59;0.00;;;0.00;;
18142;SDS011;9197;50.930;3.140;2022-11-06T09:44:30;0.10;;;0.10;;
18142;SDS011;9197;50.930;3.140;2022-11-06T09:47:02;0.00;;;0.00;;
18142;SDS011;9197;50.930;3.140;2022-11-06T09:49:32;1.20;;;1.20;;
18142;SDS011;9197;50.930;3.140;2022-11-06T09:52:02;0.37;;;0.37;;
18142;SDS011;9197;50.930;3.140;2022-11-06T09:54:33;0.67;;;0.67;;
18142;SDS011;9197;50.930;3.140;2022-11-06T09:57:03;0.63;;;0.53;;
18142;SDS011;9197;50.930;3.140;2022-11-06T09:59:33;0.20;;;0.20;;
18142;SDS011;9197;50.930;3.140;2022-11-06T10:02:01;0.10;;;0.10;;
18142;SDS011;9197;50.930;3.140;2022-11-06T10:04:39;0.00;;;0.00;;
18142;SDS011;9197;50.930;3.140;2022-11-06T10:07:11;0.00;;;0.00;;
18142;SDS011;9197;50.930;3.140;2022-11-06T10:09:41;0.00;;;0.00;;
18142;SDS011;9197;50.930;3.140;2022-11-06T10:12:10;2.70;;;0.77;;
18142;SDS011;9197;50.930;3.140;2022-11-06T10:14:47;0.10;;;0.10;;
18142;SDS011;9197;50.930;3.140;2022-11-06T10:17:22;0.23;;;0.23;;
18142;SDS011;9197;50.930;3.140;2022-11-06T10:19:55;0.20;;;0.20;;
18142;SDS011;9197;50.930;3.140;2022-11-06T10:22:24;0.00;;;0.00;;
18142;SDS011;9197;50.930;3.140;2022-11-06T10:24:55;0.33;;;0.33;;
18142;SDS011;9197;50.930;3.140;2022-11-06T10:27:26;0.10;;;0.10;;
18142;SDS011;9197;50.930;3.140;2022-11-06T10:30:00;0.40;;;0.40;;
18142;SDS011;9197;50.930;3.140;2022-11-06T10:32:34;12.47;;;2.77;;
18142;SDS011;9197;50.930;3.140;2022-11-06T10:35:07;0.40;;;0.40;;
18142;SDS011;9197;50.930;3.140;2022-11-06T10:37:39;0.27;;;0.27;;
18142;SDS011;9197;50.930;3.140;2022-11-06T10:40:08;2.30;;;2.10;;
18142;SDS011;9197;50.930;3.140;2022-11-06T10:42:39;0.10;;;0.10;;
18142;SDS011;9197;50.930;3.140;2022-11-06T10:45:09;0.70;;;0.70;;
18142;SDS011;9197;50.930;3.140;2022-11-06T10:47:45;1.90;;;0.93;;
18142;SDS011;9197;50.930;3.140;2022-11-06T10:50:16;0.30;;;0.30;;
18142;SDS011;9197;50.930;3.140;2022-11-06T10:52:46;1.60;;;1.50;;
18142;SDS011;9197;50.930;3.140;2022-11-06T10:55:28;0.90;;;0.90;;
18142;SDS011;9197;50.930;3.140;2022-11-06T10:58:00;2.63;;;0.60;;
18142;SDS011;9197;50.930;3.140;2022-11-06T11:00:28;0.10;;;0.10;;
18142;SDS011;9197;50.930;3.140;2022-11-06T11:02:58;0.30;;;0.30;;
18142;SDS011;9197;50.930;3.140;2022-11-06T11:05:31;0.10;;;0.10;;
18142;SDS011;9197;50.930;3.140;2022-11-06T11:07:59;2.57;;;2.37;;
18142;SDS011;9197;50.930;3.140;2022-11-06T11:10:27;0.00;;;0.00;;
18142;SDS011;9197;50.930;3.140;2022-11-06T11:12:55;1.20;;;1.20;;
18142;SDS011;9197;50.930;3.140;2022-11-06T11:15:24;0.10;;;0.10;;
18142;SDS011;9197;50.930;3.140;2022-11-06T11:21:04;0.27;;;0.27;;
18142;SDS011;9197;50.930;3.140;2022-11-06T11:23:32;0.40;;;0.40;;
18142;SDS011;9197;50.930;3.140;2022-11-06T11:26:11;0.00;;;0.00;;
18142;SDS011;9197;50.930;3.140;2022-11-06T11:28:40;0.50;;;0.50;;
18142;SDS011;9197;50.930;3.140;2022-11-06T11:31:08;0.00;;;0.00;;
18142;SDS011;9197;50.930;3.140;2022-11-06T11:33:36;1.33;;;1.23;;
18142;SDS011;9197;50.930;3.140;2022-11-06T11:36:06;0.40;;;0.40;;
18142;SDS011;9197;50.930;3.140;2022-11-06T11:38:35;0.00;;;0.00;;
18142;SDS011;9197;50.930;3.140;2022-11-06T11:41:06;0.10;;;0.10;;
18142;SDS011;9197;50.930;3.140;2022-11-06T11:43:34;0.00;;;0.00;;
18142;SDS011;9197;50.930;3.140;2022-11-06T11:46:04;0.10;;;0.10;;
18142;SDS011;9197;50.930;3.140;2022-11-06T11:48:41;0.00;;;0.00;;
18142;SDS011;9197;50.930;3.140;2022-11-06T11:51:15;0.30;;;0.30;;
18142;SDS011;9197;50.930;3.140;2022-11-06T11:53:44;0.73;;;0.63;;
18142;SDS011;9197;50.930;3.140;2022-11-06T11:56:13;0.97;;;0.97;;
18142;SDS011;9197;50.930;3.140;2022-11-06T11:58:46;2.30;;;2.00;;
18142;SDS011;9197;50.930;3.140;2022-11-06T12:01:14;0.10;;;0.10;;
18142;SDS011;9197;50.930;3.140;2022-11-06T12:03:42;0.00;;;0.00;;
18142;SDS011;9197;50.930;3.140;2022-11-06T12:06:11;0.10;;;0.10;;
18142;SDS011;9197;50.930;3.140;2022-11-06T12:08:44;0.10;;;0.10;;
18142;SDS011;9197;50.930;3.140;2022-11-06T12:11:12;1.00;;;1.00;;
18142;SDS011;9197;50.930;3.140;2022-11-06T12:13:40;1.60;;;1.50;;
18142;SDS011;9197;50.930;3.140;2022-11-06T12:16:09;0.40;;;0.40;;
18142;SDS011;9197;50.930;3.140;2022-11-06T12:18:37;0.10;;;0.10;;
18142;SDS011;9197;50.930;3.140;2022-11-06T12:21:07;2.00;;;1.70;;
18142;SDS011;9197;50.930;3.140;2022-11-06T12:23:41;0.10;;;0.10;;
18142;SDS011;9197;50.930;3.140;2022-11-06T12:26:11;0.27;;;0.27;;
18142;SDS011;9197;50.930;3.140;2022-11-06T12:28:41;0.10;;;0.10;;
18142;SDS011;9197;50.930;3.140;2022-11-06T12:31:11;0.83;;;0.83;;
18142;SDS011;9197;50.930;3.140;2022-11-06T12:33:43;0.30;;;0.27;;
18142;SDS011;9197;50.930;3.140;2022-11-06T12:36:14;0.47;;;0.47;;
18142;SDS011;9197;50.930;3.140;2022-11-06T12:38:47;0.60;;;0.60;;
18142;SDS011;9197;50.930;3.140;2022-11-06T12:41:18;0.00;;;0.00;;
18142;SDS011;9197;50.930;3.140;2022-11-06T12:43:48;0.13;;;0.13;;
18142;SDS011;9197;50.930;3.140;2022-11-06T12:46:19;0.30;;;0.30;;
18142;SDS011;9197;50.930;3.140;2022-11-06T12:49:02;0.00;;;0.00;;
18142;SDS011;9197;50.930;3.140;2022-11-06T12:51:35;0.00;;;0.00;;
18142;SDS011;9197;50.930;3.140;2022-11-06T12:54:14;0.27;;;0.27;;
18142;SDS011;9197;50.930;3.140;2022-11-06T12:56:47;1.20;;;1.17;;
18142;SDS011;9197;50.930;3.140;2022-11-06T12:59:23;0.60;;;0.60;;
18142;SDS011;9197;50.930;3.140;2022-11-06T13:01:54;0.10;;;0.10;;
18142;SDS011;9197;50.930;3.140;2022-11-06T13:04:31;1.03;;;1.03;;
18142;SDS011;9197;50.930;3.140;2022-11-06T13:07:06;0.00;;;0.00;;
18142;SDS011;9197;50.930;3.140;2022-11-06T13:09:42;0.00;;;0.00;;
18142;SDS011;9197;50.930;3.140;2022-11-06T13:12:11;0.30;;;0.30;;
18142;SDS011;9197;50.930;3.140;2022-11-06T13:14:43;2.23;;;1.47;;
18142;SDS011;9197;50.930;3.140;2022-11-06T13:17:15;0.47;;;0.47;;
18142;SDS011;9197;50.930;3.140;2022-11-06T13:19:45;0.17;;;0.17;;
18142;SDS011;9197;50.930;3.140;2022-11-06T13:22:18;0.87;;;0.70;;
18142;SDS011;9197;50.930;3.140;2022-11-06T13:24:49;0.13;;;0.13;;
18142;SDS011;9197;50.930;3.140;2022-11-06T13:27:23;0.17;;;0.17;;
18142;SDS011;9197;50.930;3.140;2022-11-06T13:29:53;0.00;;;0.00;;
18142;SDS011;9197;50.930;3.140;2022-11-06T13:32:22;0.00;;;0.00;;
18142;SDS011;9197;50.930;3.140;2022-11-06T13:34:51;0.00;;;0.00;;
18142;SDS011;9197;50.930;3.140;2022-11-06T13:37:19;0.07;;;0.07;;
18142;SDS011;9197;50.930;3.140;2022-11-06T13:39:51;1.80;;;1.13;;
18142;SDS011;9197;50.930;3.140;2022-11-06T13:42:21;0.00;;;0.00;;
18142;SDS011;9197;50.930;3.140;2022-11-06T13:44:49;0.10;;;0.10;;
18142;SDS011;9197;50.930;3.140;2022-11-06T13:47:17;0.07;;;0.07;;
18142;SDS011;9197;50.930;3.140;2022-11-06T13:49:50;0.10;;;0.10;;
18142;SDS011;9197;50.930;3.140;2022-11-06T13:52:24;0.40;;;0.40;;
18142;SDS011;9197;50.930;3.140;2022-11-06T13:55:02;0.00;;;0.00;;
18142;SDS011;9197;50.930;3.140;2022-11-06T13:57:37;0.10;;;0.10;;
18142;SDS011;9197;50.930;3.140;2022-11-06T14:00:16;0.20;;;0.20;;
18142;SDS011;9197;50.930;3.140;2022-11-06T14:02:54;0.10;;;0.10;;
18142;SDS011;9197;50.930;3.140;2022-11-06T14:08:11;0.30;;;0.30;;
18142;SDS011;9197;50.930;3.140;2022-11-06T14:10:46;0.00;;;0.00;;
18142;SDS011;9197;50.930;3.140;2022-11-06T14:13:14;0.17;;;0.17;;
18142;SDS011;9197;50.930;3.140;2022-11-06T14:15:42;0.10;;;0.10;;
18142;SDS011;9197;50.930;3.140;2022-11-06T14:18:12;0.30;;;0.30;;
18142;SDS011;9197;50.930;3.140;2022-11-06T14:20:39;1.60;;;0.87;;
18142;SDS011;9197;50.930;3.140;2022-11-06T14:25:58;0.00;;;0.00;;
18142;SDS011;9197;50.930;3.140;2022-11-06T14:28:27;0.10;;;0.10;;
18142;SDS011;9197;50.930;3.140;2022-11-06T14:30:55;0.00;;;0.00;;
18142;SDS011;9197;50.930;3.140;2022-11-06T14:36:11;0.00;;;0.00;;
18142;SDS011;9197;50.930;3.140;2022-11-06T14:38:38;0.00;;;0.00;;
18142;SDS011;9197;50.930;3.140;2022-11-06T14:43:53;11.03;;;1.70;;
18142;SDS011;9197;50.930;3.140;2022-11-06T14:46:22;0.10;;;0.10;;
18142;SDS011;9197;50.930;3.140;2022-11-06T14:48:50;0.10;;;0.10;;
18142;SDS011;9197;50.930;3.140;2022-11-06T14:51:23;0.00;;;0.00;;
18142;SDS011;9197;50.930;3.140;2022-11-06T14:53:51;0.10;;;0.10;;
18142;SDS011;9197;50.930;3.140;2022-11-06T14:56:20;0.00;;;0.00;;
18142;SDS011;9197;50.930;3.140;2022-11-06T14:58:49;0.37;;;0.37;;
18142;SDS011;9197;50.930;3.140;2022-11-06T15:01:24;0.07;;;0.07;;
18142;SDS011;9197;50.930;3.140;2022-11-06T15:03:52;0.97;;;0.97;;
18142;SDS011;9197;50.930;3.140;2022-11-06T15:06:32;2.53;;;1.67;;
18142;SDS011;9197;50.930;3.140;2022-11-06T15:09:02;0.27;;;0.27;;
18142;SDS011;9197;50.930;3.140;2022-11-06T15:17:03;1.13;;;1.03;;
18142;SDS011;9197;50.930;3.140;2022-11-06T15:19:32;0.03;;;0.03;;
18142;SDS011;9197;50.930;3.140;2022-11-06T15:22:02;0.00;;;0.00;;
18142;SDS011;9197;50.930;3.140;2022-11-06T15:24:35;0.30;;;0.30;;
18142;SDS011;9197;50.930;3.140;2022-11-06T15:27:03;0.10;;;0.10;;
18142;SDS011;9197;50.930;3.140;2022-11-06T15:29:35;0.10;;;0.10;;
18142;SDS011;9197;50.930;3.140;2022-11-06T15:32:12;0.03;;;0.03;;
18142;SDS011;9197;50.930;3.140;2022-11-06T15:34:42;0.47;;;0.47;;
18142;SDS011;9197;50.930;3.140;2022-11-06T15:37:11;0.07;;;0.07;;